Time;durP1;ratioP1;P1;durP2;ratioP2;P2;SDS_P1;SDS_P2;PMS_P1;PMS_P2;Temp;Humidity;BMP_temperature;BMP_pressure;BME280_temperature;BME280_humidity;BME280_pressure;Samples;Min_cycle;Max_cycle;Signal;HPM_P1;HPM_P2
2022/05/29 00:00:03;;;;;;;6.37;3.45;;;;;;;9.81;76.24;99985.16;3502280;80;21474;-80
2022/05/29 00:04:56;;;;;;;6.25;3.35;;;;;;;9.81;76.24;99985.16;3506150;80;21010;-80
2022/05/29 00:09:49;;;;;;;6.45;3.60;;;;;;;9.83;76.18;99987.33;3474972;80;21067;-80
2022/05/29 00:14:42;;;;;;;4.78;3.25;;;;;;;9.85;76.21;99990.80;3463998;80;20908;-80
2022/05/29 00:19:33;;;;;;;4.40;3.12;;;;;;;9.89;76.29;99995.19;3451826;80;21459;-80
2022/05/29 00:24:25;;;;;;;4.42;2.80;;;;;;;9.90;76.09;99981.77;3498487;80;21517;-80
2022/05/29 00:29:16;;;;;;;5.53;3.35;;;;;;;9.93;76.15;99983.96;3469537;80;21548;-80
2022/05/29 00:34:07;;;;;;;4.47;3.47;;;;;;;9.96;76.21;99984.40;3465084;80;20918;-80
2022/05/29 00:38:58;;;;;;;8.33;3.30;;;;;;;9.95;76.07;99983.11;3434295;80;20924;-80
2022/05/29 00:44:19;;;;;;;4.17;3.20;;;;;;;9.98;76.16;99983.11;3511823;80;21020;-80
2022/05/29 00:49:12;;;;;;;3.35;3.02;;;;;;;9.99;76.38;99988.77;3482857;80;21091;-80
2022/05/29 00:54:06;;;;;;;5.35;2.95;;;;;;;9.98;76.39;99993.50;3468204;80;21472;-80
2022/05/29 00:58:58;;;;;;;5.60;2.98;;;;;;;9.91;76.44;99983.08;3481949;80;20881;-80
2022/05/29 01:03:49;;;;;;;4.20;2.98;;;;;;;9.83;76.71;99978.68;3450972;80;21418;-80
2022/05/29 01:08:40;;;;;;;4.58;2.77;;;;;;;9.82;76.77;99976.92;3459722;80;21118;-80
2022/05/29 01:14:08;;;;;;;5.85;4.42;;;;;;;9.84;76.86;99980.44;3483360;80;20995;-80
2022/05/29 01:19:23;;;;;;;3.90;3.50;;;;;;;9.85;76.96;99980.42;3484291;80;20972;-80
2022/05/29 01:24:28;;;;;;;3.90;2.83;;;;;;;9.81;77.31;99970.87;3508894;80;20921;-79
2022/05/29 01:29:25;;;;;;;3.42;2.62;;;;;;;9.86;77.36;99983.91;3470931;80;20952;-80
2022/05/29 01:34:33;;;;;;;5.77;4.37;;;;;;;9.86;77.36;99983.91;3492973;80;20987;-80
2022/05/29 01:39:50;;;;;;;6.28;5.40;;;;;;;9.87;77.06;99983.03;3504500;80;21528;-80
2022/05/29 01:45:02;;;;;;;7.13;4.33;;;;;;;9.86;76.93;99989.96;3500880;80;20971;-80
2022/05/29 01:49:58;;;;;;;9.95;5.75;;;;;;;9.83;76.99;99986.47;3504719;80;21214;-80
2022/05/29 01:55:00;;;;;;;4.73;3.83;;;;;;;9.85;76.96;99985.61;3515639;80;20896;-80
2022/05/29 02:00:03;;;;;;;10.08;5.72;;;;;;;9.89;76.69;99989.10;3478676;80;20922;-80
2022/05/29 02:05:00;;;;;;;12.65;5.67;;;;;;;9.84;76.71;99974.80;3471780;80;20948;-80
2022/05/29 02:10:11;;;;;;;5.42;3.65;;;;;;;9.84;76.71;99974.80;3489596;80;20901;-80
2022/05/29 02:15:08;;;;;;;5.67;3.95;;;;;;;9.90;76.82;99977.44;3483976;80;20925;-80
2022/05/29 02:20:27;;;;;;;;;;;;;;;9.88;76.78;99975.27;3491032;80;21403;-80
2022/05/29 02:25:21;;;;;;;4.95;2.75;;;;;;;9.88;76.87;99983.05;3497338;80;20141;-80
2022/05/29 02:30:14;;;;;;;7.95;4.75;;;;;;;9.84;76.78;99984.33;3479513;80;21188;-80
2022/05/29 02:35:29;;;;;;;6.42;3.02;;;;;;;9.82;76.82;99983.02;3468357;80;20979;-80
2022/05/29 02:40:38;;;;;;;6.80;2.70;;;;;;;9.80;76.56;99986.44;3470900;80;20929;-80
2022/05/29 02:45:57;;;;;;;5.70;3.40;;;;;;;9.81;76.61;99986.45;3489518;80;20968;-80
2022/05/29 02:51:12;;;;;;;5.60;3.52;;;;;;;9.87;76.80;99990.83;3475641;80;21047;-80
2022/05/29 02:56:05;;;;;;;7.75;3.15;;;;;;;9.86;76.41;99999.05;3527127;80;22578;-80
2022/05/29 03:01:08;;;;;;;5.75;3.75;;;;;;;9.86;76.41;99999.05;3434043;79;21413;-80
2022/05/29 03:06:13;;;;;;;6.90;3.45;;;;;;;9.89;76.79;100000.38;3443609;80;20972;-80
2022/05/29 03:11:40;;;;;;;5.35;3.05;;;;;;;9.98;76.77;100004.78;3517161;80;20956;-80
2022/05/29 03:17:12;;;;;;;14.83;7.78;;;;;;;9.98;76.77;100004.78;3476731;79;21007;-79
2022/05/29 03:22:28;;;;;;;9.70;5.40;;;;;;;10.02;76.79;100004.38;3496124;80;21284;-80
2022/05/29 03:27:25;;;;;;;8.78;5.08;;;;;;;9.99;76.68;100005.20;3496042;80;21385;-79
2022/05/29 03:32:17;;;;;;;7.20;3.17;;;;;;;10.05;76.83;100004.38;3498742;80;21425;-80
2022/05/29 03:37:08;;;;;;;3.58;2.55;;;;;;;10.28;76.73;100016.24;3441397;80;20950;-80
2022/05/29 03:41:59;;;;;;;3.87;2.50;;;;;;;10.54;76.33;100013.86;3460615;80;20907;-80
2022/05/29 03:46:51;;;;;;;4.00;2.17;;;;;;;10.58;75.88;100013.00;3460163;80;20940;-80
2022/05/29 03:51:43;;;;;;;4.30;2.27;;;;;;;10.71;75.75;100014.38;3476425;80;21003;-80
2022/05/29 03:56:36;;;;;;;6.50;2.30;;;;;;;10.71;75.75;100014.38;3458972;80;21478;-80
2022/05/29 04:01:27;;;;;;;5.55;2.62;;;;;;;10.85;75.94;100022.67;3453759;80;20968;-81
2022/05/29 04:06:18;;;;;;;5.70;2.70;;;;;;;10.92;75.66;100018.38;3448489;80;20907;-80
2022/05/29 04:16:21;;;;;;;5.45;3.05;;;;;;;10.95;75.72;100026.64;3453617;80;20960;-80
2022/05/29 04:21:12;;;;;;;4.47;2.30;;;;;;;10.83;75.28;100025.70;3464164;80;20947;-80
2022/05/29 04:26:04;;;;;;;3.35;2.65;;;;;;;10.82;75.55;100036.09;3445684;80;20983;-80
2022/05/29 04:30:55;;;;;;;5.00;2.55;;;;;;;10.77;75.26;100043.02;3446352;80;21073;-80
2022/05/29 04:35:52;;;;;;;5.17;2.70;;;;;;;10.78;75.60;100061.64;3497968;80;21073;-80
2022/05/29 04:40:44;;;;;;;6.22;3.00;;;;;;;10.77;75.28;100056.88;3508823;80;21074;-79
2022/05/29 04:45:39;;;;;;;4.20;2.72;;;;;;;10.87;75.48;100053.89;3418066;80;20967;-80
2022/05/29 04:50:31;;;;;;;5.33;2.22;;;;;;;10.73;75.22;100059.45;3420695;80;20955;-80
2022/05/29 04:55:22;;;;;;;5.15;2.80;;;;;;;10.73;75.13;100055.55;3431493;80;20962;-80
2022/05/29 05:00:15;;;;;;;5.22;2.77;;;;;;;10.77;75.27;100050.38;3464055;80;21806;-80
2022/05/29 05:05:07;;;;;;;5.00;2.45;;;;;;;10.83;75.53;100045.64;3422659;80;21074;-80
2022/05/29 05:09:58;;;;;;;3.80;3.33;;;;;;;10.90;74.97;100043.51;3454011;80;21834;-80
2022/05/29 05:14:49;;;;;;;4.80;2.42;;;;;;;10.95;74.85;100036.60;3501522;80;21668;-80
2022/05/29 05:19:40;;;;;;;5.60;2.50;;;;;;;11.03;74.75;100049.19;3431959;80;21607;-79
2022/05/29 05:24:34;;;;;;;2.95;2.25;;;;;;;10.99;74.61;100059.16;3447999;79;21682;-80
2022/05/29 05:29:27;;;;;;;7.03;2.98;;;;;;;11.03;74.54;100063.94;3505466;80;21011;-80
2022/05/29 05:34:17;;;;;;;3.37;2.87;;;;;;;11.03;74.82;100065.23;3427604;80;21501;-80
2022/05/29 05:39:09;;;;;;;3.55;3.02;;;;;;;11.11;74.54;100065.30;3474459;80;21739;-80
2022/05/29 05:44:00;;;;;;;6.28;3.08;;;;;;;11.14;74.17;100063.98;3466065;80;20963;-80
2022/05/29 05:48:51;;;;;;;7.20;3.75;;;;;;;11.24;74.40;100065.77;3467119;80;20914;-80
2022/05/29 05:53:42;;;;;;;6.55;3.83;;;;;;;11.51;74.30;100062.83;3470806;80;20951;-80
2022/05/29 05:58:33;;;;;;;7.75;4.12;;;;;;;11.73;73.66;100074.15;3446111;80;21014;-80
2022/05/29 06:03:24;;;;;;;7.37;4.20;;;;;;;11.88;73.18;100068.12;3440247;80;20990;-79
2022/05/29 06:08:15;;;;;;;7.70;4.45;;;;;;;12.05;73.25;100079.43;3444450;80;21545;-80
2022/05/29 06:13:07;;;;;;;7.72;4.10;;;;;;;12.12;73.03;100094.20;3463452;80;20967;-80
2022/05/29 06:17:58;;;;;;;10.05;5.33;;;;;;;12.07;72.59;100092.02;3460862;80;20970;-80
2022/05/29 06:22:50;;;;;;;6.30;4.47;;;;;;;12.02;72.66;100089.88;3430956;80;21000;-80
2022/05/29 06:27:44;;;;;;;7.85;6.05;;;;;;;12.09;72.37;100091.62;3415070;80;20920;-80
2022/05/29 06:32:36;;;;;;;7.37;5.75;;;;;;;12.18;72.02;100095.97;3480696;80;21457;-80
2022/05/29 06:37:29;;;;;;;6.58;5.42;;;;;;;12.38;72.13;100101.18;3503203;80;21102;-81
2022/05/29 06:42:20;;;;;;;7.22;5.53;;;;;;;12.57;71.53;100102.91;3474736;81;21539;-80
2022/05/29 06:47:14;;;;;;;5.83;5.22;;;;;;;13.12;70.52;100104.95;3512320;80;21620;-80
2022/05/29 06:52:10;;;;;;;6.55;4.95;;;;;;;13.29;70.15;100111.44;3519501;80;21427;-80
2022/05/29 06:57:02;;;;;;;;;;;;;;;13.49;69.89;100113.99;3480473;80;21406;-80
2022/05/29 07:07:02;;;;;;;6.90;4.05;;;;;;;13.60;68.69;100114.80;3521827;80;21071;-81
2022/05/29 07:11:59;;;;;;;8.75;4.10;;;;;;;13.88;68.25;100109.43;3461733;80;20932;-81
2022/05/29 07:16:50;;;;;;;6.83;3.42;;;;;;;13.93;67.37;100123.31;3493693;80;29079;-81
2022/05/29 07:21:42;;;;;;;6.72;3.70;;;;;;;14.24;66.96;100123.13;3450142;80;20895;-80
2022/05/29 07:26:34;;;;;;;5.65;3.58;;;;;;;14.18;67.01;100132.30;3483240;80;21956;-80
2022/05/29 07:31:26;;;;;;;5.55;3.33;;;;;;;14.15;67.04;100129.28;3457045;80;21009;-81
2022/05/29 07:36:17;;;;;;;6.37;3.67;;;;;;;14.53;65.69;100132.48;3475727;80;20856;-81
2022/05/29 07:46:19;;;;;;;5.28;2.80;;;;;;;15.75;64.33;100137.30;3451221;80;21502;-81
2022/05/29 07:51:10;;;;;;;5.28;2.45;;;;;;;15.34;64.12;100149.14;3449114;80;20965;-81
2022/05/29 07:56:03;;;;;;;8.60;4.83;;;;;;;15.98;62.85;100143.09;3451436;80;20963;-81
2022/05/29 08:00:54;;;;;;;3.92;2.42;;;;;;;16.49;61.83;100147.57;3477183;80;20908;-82
2022/05/29 08:05:45;;;;;;;4.65;1.90;;;;;;;17.33;60.27;100149.57;3492835;80;21011;-82
2022/05/29 08:10:40;;;;;;;3.05;2.00;;;;;;;17.66;59.33;100157.68;3476013;80;21257;-82
2022/05/29 08:15:31;;;;;;;3.70;3.08;;;;;;;18.69;58.79;100151.38;3433835;80;21070;-83
2022/05/29 08:20:22;;;;;;;5.12;2.35;;;;;;;22.36;52.53;100146.88;3437683;80;21027;-81
2022/05/29 08:30:37;;;;;;;4.62;2.22;;;;;;;26.43;46.10;100138.45;3444175;80;20952;-81
2022/05/29 08:35:31;;;;;;;4.90;2.83;;;;;;;27.46;44.44;100149.25;3485996;80;21415;-81
2022/05/29 08:40:23;;;;;;;3.83;2.47;;;;;;;25.14;46.39;100138.02;3506491;80;21963;-81
2022/05/29 08:45:18;;;;;;;5.28;2.22;;;;;;;28.28;43.21;100131.06;3491704;80;20893;-81
2022/05/29 08:50:15;;;;;;;5.08;2.42;;;;;;;27.34;43.00;100146.38;3447661;80;20939;-81
2022/05/29 08:55:17;;;;;;;2.27;1.80;;;;;;;26.50;42.71;100148.26;3464888;80;20996;-82
2022/05/29 09:00:39;;;;;;;6.67;2.15;;;;;;;24.63;44.21;100145.48;3478683;80;20955;-81
2022/05/29 09:05:45;;;;;;;4.85;2.15;;;;;;;23.47;44.16;100152.74;3511371;80;21516;-80
2022/05/29 09:10:41;;;;;;;4.03;1.90;;;;;;;22.46;45.96;100146.03;3473532;80;20971;-81
2022/05/29 09:15:42;;;;;;;;;;;;;;;22.46;45.59;100149.56;3464066;80;20921;-81
2022/05/29 09:20:54;;;;;;;6.28;2.40;;;;;;;20.99;47.01;100153.32;3444920;80;37492;-80
2022/05/29 09:25:46;;;;;;;3.30;2.37;;;;;;;20.25;47.65;100158.87;3471138;80;20963;-80
2022/05/29 09:30:38;;;;;;;5.62;2.50;;;;;;;18.90;49.07;100161.82;3427770;79;20976;-80
2022/05/29 09:36:05;;;;;;;3.98;1.90;;;;;;;18.13;49.48;100166.30;3467952;80;21232;-79
2022/05/29 09:41:29;;;;;;;5.47;3.20;;;;;;;17.68;50.82;100163.30;3526480;80;20948;-82
2022/05/29 09:46:23;;;;;;;4.50;2.17;;;;;;;17.26;51.56;100174.23;3479961;80;20975;-80
2022/05/29 09:51:28;;;;;;;3.17;1.95;;;;;;;16.98;51.69;100181.33;3493356;80;21114;-81
2022/05/29 09:56:30;;;;;;;4.65;2.15;;;;;;;16.91;52.36;100179.70;3500769;80;21186;-82
2022/05/29 10:01:34;;;;;;;6.80;2.00;;;;;;;17.01;52.24;100173.40;3435866;80;21054;-81
2022/05/29 10:06:33;;;;;;;4.80;2.17;;;;;;;17.17;52.15;100178.35;3464855;80;21225;-81
2022/05/29 10:11:31;;;;;;;4.37;1.87;;;;;;;17.30;52.95;100179.87;3505657;80;21038;-81
2022/05/29 10:16:37;;;;;;;5.03;2.00;;;;;;;17.72;52.67;100178.56;3449430;80;20983;-82
2022/05/29 10:21:31;;;;;;;3.33;1.80;;;;;;;20.52;49.34;100167.20;3497906;80;21177;-79
2022/05/29 10:26:36;;;;;;;6.80;2.40;;;;;;;22.14;46.64;100161.88;3456168;80;20956;-78
2022/05/29 10:31:32;;;;;;;4.58;1.80;;;;;;;23.73;44.66;100167.92;3459157;80;21070;-79
2022/05/29 10:36:27;;;;;;;4.35;2.05;;;;;;;22.35;45.33;100164.16;3475914;80;22275;-79
2022/05/29 10:41:23;;;;;;;3.58;1.70;;;;;;;23.49;44.88;100164.14;3485344;80;20893;-80
2022/05/29 10:46:22;;;;;;;2.42;1.52;;;;;;;25.21;41.82;100160.70;3512869;80;21607;-79
2022/05/29 10:51:27;;;;;;;2.52;1.45;;;;;;;24.33;41.33;100164.64;3457133;80;21496;-79
2022/05/29 10:56:45;;;;;;;3.20;1.97;;;;;;;23.82;41.56;100162.21;3489403;79;20916;-79
2022/05/29 11:07:29;;;;;;;6.28;2.05;;;;;;;22.16;42.83;100163.55;3491094;80;20896;-80
2022/05/29 11:12:37;;;;;;;4.87;1.95;;;;;;;22.23;43.07;100145.17;3464448;80;21016;-79
2022/05/29 11:17:56;;;;;;;5.15;2.10;;;;;;;22.30;44.45;100155.06;3478371;80;21482;-80
2022/05/29 11:23:07;;;;;;;2.90;1.37;;;;;;;22.80;45.22;100149.47;3488038;80;20889;-79
2022/05/29 11:28:13;;;;;;;4.15;1.90;;;;;;;22.01;43.57;100149.59;3480809;80;20944;-80
2022/05/29 11:33:21;;;;;;;4.97;1.70;;;;;;;20.40;44.97;100150.44;3471349;80;20958;-79
2022/05/29 11:38:33;;;;;;;5.17;1.50;;;;;;;19.57;46.20;100155.61;3378903;83;21151;-80
2022/05/29 11:43:45;;;;;;;3.62;1.82;;;;;;;19.26;47.05;100161.73;3395737;83;21157;-79
2022/05/29 11:54:29;;;;;;;4.87;1.60;;;;;;;19.03;48.17;100146.12;3266644;86;21590;-80
2022/05/29 11:59:41;;;;;;;3.62;1.60;;;;;;;20.19;47.83;100126.91;3303740;85;21043;-80
2022/05/29 12:04:37;;;;;;;3.15;1.60;;;;;;;21.19;46.64;100124.84;3276969;86;21533;-80
2022/05/29 12:09:52;;;;;;;3.15;1.90;;;;;;;21.61;45.59;100121.57;3271973;85;21594;-80
2022/05/29 12:15:08;;;;;;;3.10;1.82;;;;;;;21.85;44.30;100122.86;3350626;83;20986;-80
2022/05/29 12:20:19;;;;;;;4.22;2.08;;;;;;;21.30;44.29;100127.98;3337449;83;21537;-80
2022/05/29 12:25:30;;;;;;;2.70;1.45;;;;;;;21.65;45.15;100113.91;3435602;80;20958;-79
2022/05/29 12:30:32;;;;;;;2.37;1.42;;;;;;;22.06;43.00;100112.74;3490264;79;21124;-79
2022/05/29 12:35:35;;;;;;;3.35;1.40;;;;;;;21.50;42.77;100118.02;3477855;80;20940;-79
2022/05/29 12:40:51;;;;;;;3.62;1.72;;;;;;;21.57;44.05;100119.97;3521355;80;20940;-79
2022/05/29 12:46:27;;;;;;;3.95;2.12;;;;;;;20.80;42.99;100132.41;3515456;80;21500;-80
2022/05/29 12:51:41;;;;;;;3.08;1.60;;;;;;;20.16;44.36;100134.48;3471460;79;21468;-80
2022/05/29 12:57:07;;;;;;;3.70;1.90;;;;;;;19.76;45.19;100129.58;3440714;81;21561;-79
2022/05/29 13:02:16;;;;;;;4.40;2.03;;;;;;;19.72;45.54;100141.95;3342370;84;20964;-79
2022/05/29 13:07:25;;;;;;;5.33;1.90;;;;;;;19.70;45.71;100141.14;3353977;84;21616;-80
2022/05/29 13:12:30;;;;;;;3.30;1.60;;;;;;;19.66;45.51;100138.20;3330433;83;20909;-80
2022/05/29 13:17:29;;;;;;;3.77;1.47;;;;;;;19.63;45.86;100134.33;3279462;85;21262;-79
2022/05/29 13:22:21;;;;;;;3.05;1.30;;;;;;;19.59;46.28;100135.34;3214718;86;21058;-79
2022/05/29 13:27:18;;;;;;;5.33;1.92;;;;;;;19.58;45.80;100138.87;3195135;86;21117;-80
2022/05/29 13:32:22;;;;;;;4.95;1.65;;;;;;;19.51;46.10;100145.23;3197459;87;20932;-79
2022/05/29 13:37:39;;;;;;;3.58;1.80;;;;;;;19.50;45.87;100148.80;3277980;83;20952;-79
2022/05/29 13:42:45;;;;;;;2.50;1.30;;;;;;;19.36;46.48;100151.35;3354505;83;21031;-80
2022/05/29 13:47:47;;;;;;;3.12;1.40;;;;;;;19.32;46.51;100144.91;3342542;83;21325;-79
2022/05/29 13:52:55;;;;;;;4.05;1.92;;;;;;;19.37;46.51;100147.82;3396404;83;21039;-79
2022/05/29 14:08:24;;;;;;;4.10;1.50;;;;;;;19.40;45.65;100148.17;3367657;82;20979;-81
2022/05/29 14:13:36;;;;;;;5.90;2.10;;;;;;;19.37;46.25;100151.77;3478485;80;21405;-80
2022/05/29 14:18:58;;;;;;;3.33;1.65;;;;;;;19.11;45.88;100159.53;3512747;79;20968;-79
2022/05/29 14:23:57;;;;;;;2.25;1.32;;;;;;;18.84;46.86;100155.41;3517106;80;20948;-80
2022/05/29 14:29:46;;;;;;;3.70;1.60;;;;;;;18.62;46.87;100145.40;3484775;79;20978;-80
2022/05/29 14:35:13;;;;;;;2.58;1.25;;;;;;;18.48;46.73;100145.73;3502334;80;21023;-79
2022/05/29 14:40:24;;;;;;;3.27;1.32;;;;;;;18.43;46.66;100148.08;3494876;80;29527;-80
2022/05/29 14:45:29;;;;;;;2.00;1.37;;;;;;;18.47;47.38;100142.70;3504841;80;20939;-80
2022/05/29 14:50:41;;;;;;;3.33;1.67;;;;;;;18.63;46.68;100150.20;3506015;80;20919;-80
2022/05/29 14:55:43;;;;;;;2.95;1.35;;;;;;;18.63;46.57;100141.84;3494356;79;21003;-78
2022/05/29 15:00:40;;;;;;;1.87;1.65;;;;;;;18.75;46.28;100138.51;3459259;80;20998;-80
2022/05/29 15:05:35;;;;;;;2.75;1.50;;;;;;;18.87;46.13;100138.22;3476434;80;21031;-79
2022/05/29 15:10:41;;;;;;;7.75;3.58;;;;;;;19.23;46.96;100135.48;3467937;79;20971;-80
2022/05/29 15:15:37;;;;;;;2.72;1.50;;;;;;;19.38;46.11;100140.30;3470084;80;21010;-80
2022/05/29 15:25:34;;;;;;;2.90;1.57;;;;;;;19.36;44.38;100134.68;3452065;80;20971;-80
2022/05/29 15:30:26;;;;;;;2.90;1.22;;;;;;;19.20;45.68;100138.20;3420391;80;21878;-80
2022/05/29 15:35:26;;;;;;;3.20;1.60;;;;;;;19.33;45.00;100133.44;3446012;80;20987;-80
2022/05/29 15:40:53;;;;;;;2.72;1.40;;;;;;;18.99;45.47;100140.53;3435533;80;21487;-79
2022/05/29 15:46:24;;;;;;;2.25;1.30;;;;;;;18.81;46.04;100146.23;3453800;80;20968;-81
2022/05/29 15:51:57;;;;;;;6.87;2.77;;;;;;;18.51;45.23;100144.81;3483254;80;21421;-80
2022/05/29 15:57:03;;;;;;;1.87;1.20;;;;;;;18.24;45.60;100140.63;3510397;80;21213;-80
2022/05/29 16:02:14;;;;;;;2.85;1.82;;;;;;;18.09;46.45;100133.09;3475685;80;21536;-81
2022/05/29 16:07:08;;;;;;;4.83;1.40;;;;;;;17.86;46.04;100131.84;3448063;80;21478;-83
2022/05/29 16:12:01;;;;;;;1.87;1.50;;;;;;;17.94;47.04;100137.38;3418523;80;20936;-80
2022/05/29 16:17:04;;;;;;;2.17;1.55;;;;;;;17.88;46.91;100140.58;3465012;80;21000;-80
2022/05/29 16:22:34;;;;;;;3.20;1.57;;;;;;;17.84;47.89;100143.27;3486790;80;21398;-80
2022/05/29 16:27:47;;;;;;;4.03;1.37;;;;;;;17.78;47.69;100144.27;3382455;83;21003;-80
2022/05/29 16:32:54;;;;;;;3.70;2.10;;;;;;;17.65;47.90;100137.53;3454685;80;20952;-79
2022/05/29 16:48:37;;;;;;;4.90;1.62;;;;;;;17.15;48.93;100137.23;3452377;80;21046;-81
2022/05/29 16:53:51;;;;;;;3.58;1.30;;;;;;;17.04;50.00;100135.23;3488878;80;21050;-82
2022/05/29 16:58:50;;;;;;;3.08;1.62;;;;;;;16.93;50.28;100138.06;3509555;80;20984;-82
2022/05/29 17:04:12;;;;;;;6.05;1.42;;;;;;;16.87;50.86;100130.77;3509856;79;20967;-80
2022/05/29 17:09:45;;;;;;;2.37;1.50;;;;;;;16.77;50.64;100124.31;3464836;80;20897;-81
2022/05/29 17:14:22;;;;;;;3.17;1.75;;;;;;;16.65;51.38;100134.17;3450110;80;21140;-81
2022/05/29 17:19:14;;;;;;;2.67;1.47;;;;;;;16.66;51.80;100134.15;3473771;80;20955;-81
2022/05/29 17:24:17;;;;;;;3.25;1.60;;;;;;;16.70;52.59;100133.20;3458904;80;21024;-81
2022/05/29 17:29:30;;;;;;;3.70;1.90;;;;;;;16.76;52.92;100126.55;3505107;80;21074;-81
2022/05/29 17:34:28;;;;;;;1.98;1.70;;;;;;;16.65;53.07;100132.44;3490418;80;21440;-80
2022/05/29 17:39:31;;;;;;;3.15;1.67;;;;;;;16.43;53.43;100119.25;3467529;80;21190;-81
2022/05/29 17:44:24;;;;;;;2.33;1.57;;;;;;;16.25;54.33;100129.59;3475992;80;21069;-81
2022/05/29 17:49:42;;;;;;;2.98;1.60;;;;;;;16.11;54.79;100124.55;3473716;80;20955;-80
2022/05/29 17:54:44;;;;;;;1.87;1.57;;;;;;;15.99;55.10;100126.94;3466250;80;20968;-81
2022/05/29 17:59:36;;;;;;;2.83;2.10;;;;;;;15.85;55.87;100129.75;3510646;80;21497;-82
2022/05/29 18:04:30;;;;;;;4.12;2.08;;;;;;;15.66;56.75;100133.02;3480317;80;21450;-80
2022/05/29 18:09:20;;;;;;;3.80;1.80;;;;;;;15.52;57.32;100124.47;3476252;80;21015;-81
2022/05/29 18:14:15;;;;;;;3.55;1.98;;;;;;;15.38;57.79;100120.70;3444716;80;21012;-80
2022/05/29 18:19:04;;;;;;;2.70;1.75;;;;;;;15.21;58.25;100113.92;3447429;80;20971;-80
2022/05/29 18:23:57;;;;;;;3.58;1.65;;;;;;;15.04;59.02;100120.67;3436851;80;21015;-79
2022/05/29 18:28:48;;;;;;;5.83;3.00;;;;;;;14.85;59.75;100130.45;3495986;80;21515;-81
2022/05/29 18:33:40;;;;;;;4.53;3.02;;;;;;;14.75;60.12;100131.87;3479731;80;20920;-80
2022/05/29 18:38:31;;;;;;;5.30;3.42;;;;;;;14.65;60.35;100133.27;3454700;80;20987;-80
2022/05/29 18:43:21;;;;;;;3.15;2.65;;;;;;;14.53;60.64;100133.79;3451051;80;20928;-80
2022/05/29 18:48:13;;;;;;;5.00;2.70;;;;;;;14.42;61.44;100139.97;3432775;80;21063;-80
2022/05/29 18:53:04;;;;;;;6.15;3.33;;;;;;;14.36;61.73;100137.83;3467956;80;20988;-80
2022/05/29 18:57:55;;;;;;;5.08;3.25;;;;;;;14.20;61.87;100138.38;3446927;80;20928;-81
2022/05/29 19:02:47;;;;;;;5.35;3.52;;;;;;;14.07;62.12;100138.46;3486734;80;20921;-81
2022/05/29 19:07:39;;;;;;;5.05;4.00;;;;;;;13.96;62.46;100133.75;3452521;80;21489;-81
2022/05/29 19:12:32;;;;;;;6.95;4.55;;;;;;;13.87;62.93;100129.89;3457253;80;20986;-80
2022/05/29 19:22:34;;;;;;;6.92;5.37;;;;;;;13.65;63.48;100136.99;3457253;80;21039;-79
2022/05/29 19:27:25;;;;;;;8.33;5.75;;;;;;;13.55;63.72;100127.00;3467596;80;20932;-80
2022/05/29 19:32:16;;;;;;;5.67;3.80;;;;;;;13.43;64.09;100133.59;3447158;80;20994;-80
2022/05/29 19:37:07;;;;;;;6.15;5.10;;;;;;;13.39;64.21;100131.87;3440134;80;21100;-80
2022/05/29 19:41:58;;;;;;;9.43;5.80;;;;;;;13.32;64.66;100120.16;3459281;80;21656;-81
2022/05/29 19:46:49;;;;;;;8.93;4.78;;;;;;;13.29;64.88;100114.91;3478201;80;21478;-80
2022/05/29 19:51:42;;;;;;;6.33;4.83;;;;;;;13.23;65.13;100112.30;3499462;80;20940;-80
2022/05/29 19:56:33;;;;;;;7.12;4.87;;;;;;;13.16;65.24;100111.89;3424651;80;21441;-80
2022/05/29 20:01:29;;;;;;;7.10;4.37;;;;;;;13.11;65.51;100120.17;3477898;80;21125;-81
2022/05/29 20:06:27;;;;;;;4.72;3.98;;;;;;;13.06;65.67;100118.89;3515629;80;21075;-80
2022/05/29 20:11:24;;;;;;;5.78;4.17;;;;;;;13.01;65.85;100121.09;3477098;80;20916;-79
2022/05/29 20:16:26;;;;;;;6.78;4.70;;;;;;;12.95;66.03;100115.45;3483642;79;20930;-80
2022/05/29 20:21:16;;;;;;;7.95;4.15;;;;;;;12.86;66.28;100110.23;3519513;80;21564;-81
2022/05/29 20:26:11;;;;;;;7.85;5.08;;;;;;;12.82;66.68;100103.29;3459897;80;21109;-75
2022/05/29 20:31:03;;;;;;;7.10;4.60;;;;;;;12.77;66.63;100099.41;3466070;80;21235;-80
2022/05/29 20:35:54;;;;;;;6.12;5.08;;;;;;;12.70;66.65;100110.72;3440575;80;20940;-80
2022/05/29 20:40:47;;;;;;;9.20;5.45;;;;;;;12.58;66.79;100112.45;3478683;80;21023;-80
2022/05/29 20:45:44;;;;;;;8.20;5.45;;;;;;;12.52;66.97;100108.56;3386113;82;20968;-80
2022/05/29 20:50:38;;;;;;;8.93;6.40;;;;;;;12.48;67.27;100108.10;3468493;80;21007;-80
2022/05/29 20:55:31;;;;;;;9.95;7.37;;;;;;;12.43;67.35;100107.27;3456504;80;21116;-80
2022/05/29 21:00:22;;;;;;;12.00;7.90;;;;;;;12.36;67.53;100115.95;3509042;80;20978;-80
2022/05/29 21:05:13;;;;;;;10.20;6.67;;;;;;;12.34;67.62;100125.48;3442160;80;21007;-80
2022/05/29 21:10:05;;;;;;;8.08;6.50;;;;;;;12.31;67.66;100122.91;3459288;80;20987;-80
2022/05/29 21:14:56;;;;;;;9.13;7.15;;;;;;;12.27;67.77;100108.11;3479779;79;20932;-80
2022/05/29 21:19:48;;;;;;;11.80;9.10;;;;;;;12.27;67.88;100112.91;3453871;80;20874;-80
2022/05/29 21:24:40;;;;;;;10.58;7.10;;;;;;;12.24;67.81;100109.43;3443164;79;20976;-81
2022/05/29 21:29:31;;;;;;;10.63;8.05;;;;;;;12.23;67.87;100106.38;3470768;80;21229;-81
2022/05/29 21:34:25;;;;;;;11.18;8.73;;;;;;;12.22;67.90;100105.52;3403506;80;21484;-80
2022/05/29 21:39:18;;;;;;;9.78;7.20;;;;;;;12.13;67.71;100097.70;3406106;80;22453;-81
2022/05/29 21:44:14;;;;;;;12.45;8.95;;;;;;;12.08;67.84;100105.50;3515377;80;21193;-80
2022/05/29 21:49:09;;;;;;;8.57;7.57;;;;;;;12.05;68.22;100099.41;3462609;80;20968;-80
2022/05/29 21:54:00;;;;;;;10.82;8.15;;;;;;;12.04;68.23;100101.57;3500177;80;21003;-80
2022/05/29 21:58:52;;;;;;;11.78;8.63;;;;;;;11.99;68.15;100092.47;3478694;80;21007;-80
2022/05/29 22:03:44;;;;;;;10.72;6.72;;;;;;;11.95;68.45;100093.34;3473864;80;21407;-80
2022/05/29 22:08:36;;;;;;;9.70;7.62;;;;;;;11.92;68.07;100088.12;3430816;80;21124;-81
2022/05/29 22:13:29;;;;;;;7.80;6.47;;;;;;;11.88;68.16;100087.66;3461621;80;20971;-80
2022/05/29 22:18:20;;;;;;;11.18;7.78;;;;;;;11.85;68.19;100078.52;3518343;80;21545;-81
2022/05/29 22:23:12;;;;;;;10.60;6.87;;;;;;;11.77;68.41;100071.56;3422542;80;21120;-80
2022/05/29 22:28:03;;;;;;;9.03;7.20;;;;;;;11.75;68.50;100075.91;3465447;80;20915;-79
2022/05/29 22:33:06;;;;;;;9.63;8.33;;;;;;;11.72;68.60;100070.69;3478873;80;21433;-80
2022/05/29 22:37:57;;;;;;;10.43;8.10;;;;;;;11.63;68.56;100070.67;3484871;80;20938;-80
2022/05/29 22:42:49;;;;;;;10.45;7.53;;;;;;;11.59;68.74;100068.94;3442461;80;20938;-80
2022/05/29 22:48:04;;;;;;;10.80;8.50;;;;;;;11.53;68.90;100067.59;3437286;80;21070;-80
2022/05/29 22:53:06;;;;;;;10.93;8.05;;;;;;;11.48;69.00;100064.97;3457890;80;21539;-80
2022/05/29 22:57:58;;;;;;;10.55;7.80;;;;;;;11.43;69.18;100063.67;3456958;80;22307;-80
2022/05/29 23:03:04;;;;;;;12.80;8.38;;;;;;;11.41;69.38;100060.20;3389459;81;20983;-79
2022/05/29 23:07:55;;;;;;;11.75;8.05;;;;;;;11.44;69.49;100054.12;3284075;85;20978;-80
2022/05/29 23:12:46;;;;;;;11.45;8.25;;;;;;;11.46;69.63;100053.69;3246814;86;21266;-80
2022/05/29 23:17:37;;;;;;;10.10;7.65;;;;;;;11.45;69.39;100054.57;3222615;85;20992;-80
2022/05/29 23:22:38;;;;;;;9.75;8.10;;;;;;;11.38;69.53;100049.77;3263644;85;21068;-80
2022/05/29 23:27:29;;;;;;;10.30;7.95;;;;;;;11.38;69.53;100049.77;3220983;85;21027;-80
2022/05/29 23:32:26;;;;;;;10.20;6.97;;;;;;;11.38;70.18;100043.27;3343957;83;20975;-80
2022/05/29 23:37:17;;;;;;;9.40;8.20;;;;;;;11.42;70.18;100040.23;3375229;82;22365;-79
2022/05/29 23:42:23;;;;;;;11.18;8.25;;;;;;;11.41;70.03;100036.77;3325770;80;20930;-80
2022/05/29 23:47:14;;;;;;;9.25;7.45;;;;;;;11.40;70.06;100038.06;3476415;80;21355;-79
2022/05/29 23:52:06;;;;;;;8.80;7.40;;;;;;;11.38;70.10;100035.89;3481125;80;21601;-79
2022/05/29 23:56:57;;;;;;;9.55;7.90;;;;;;;11.38;70.29;100028.09;3439020;81;20897;-80
